createdAt,value
2018-11-07T00:00:34.217Z,51.10
2018-11-07T00:01:34.227Z,49.50
2018-11-07T00:02:34.219Z,53.90
2018-11-07T00:03:34.254Z,52.60
2018-11-07T00:04:34.211Z,55.50
2018-11-07T00:05:34.230Z,43.00
2018-11-07T00:06:34.216Z,52.50
2018-11-07T00:07:34.206Z,39.80
2018-11-07T00:08:34.324Z,52.20
2018-11-07T00:09:34.211Z,47.50
2018-11-07T00:10:34.196Z,48.30
2018-11-07T00:11:34.205Z,52.90
2018-11-07T00:12:34.205Z,51.10
2018-11-07T00:13:34.239Z,52.10
2018-11-07T00:14:34.206Z,56.10
2018-11-07T00:15:34.203Z,34.50
2018-11-07T00:16:34.202Z,52.10
2018-11-07T00:17:34.211Z,48.10
2018-11-07T00:18:34.220Z,48.90
2018-11-07T00:19:34.230Z,50.70
2018-11-07T00:20:34.205Z,38.10
2018-11-07T00:21:34.178Z,50.50
2018-11-07T00:22:34.196Z,55.40
2018-11-07T00:23:34.191Z,52.70
2018-11-07T00:24:34.162Z,54.70
2018-11-07T00:25:34.201Z,52.20
2018-11-07T00:26:34.187Z,57.80
2018-11-07T00:27:34.173Z,53.30
2018-11-07T00:28:34.203Z,57.60
2018-11-07T00:29:34.178Z,59.50
2018-11-07T00:30:34.150Z,58.10
2018-11-07T00:31:34.165Z,60.80
2018-11-07T00:32:34.157Z,61.90
2018-11-07T00:33:34.174Z,63.90
2018-11-07T00:34:34.165Z,67.90
2018-11-07T00:35:34.154Z,66.60
2018-11-07T00:36:34.124Z,65.60
2018-11-07T00:37:34.186Z,63.30
2018-11-07T00:38:34.159Z,64.00
2018-11-07T00:39:34.190Z,67.20
2018-11-07T00:40:34.138Z,66.90
2018-11-07T00:41:34.122Z,67.70
2018-11-07T00:42:34.124Z,63.30
2018-11-07T00:43:34.148Z,61.50
2018-11-07T00:44:34.129Z,71.30
2018-11-07T00:45:34.144Z,63.90
2018-11-07T00:46:34.117Z,65.10
2018-11-07T00:47:34.145Z,72.60
2018-11-07T00:48:34.112Z,70.20
2018-11-07T00:49:34.143Z,64.50
2018-11-07T00:50:34.111Z,71.60
2018-11-07T00:51:34.109Z,49.30
2018-11-07T00:52:34.099Z,62.50
2018-11-07T00:53:34.133Z,64.70
2018-11-07T00:54:34.094Z,61.50
2018-11-07T00:55:34.098Z,65.20
2018-11-07T00:56:34.091Z,66.90
2018-11-07T00:57:34.081Z,69.70
2018-11-07T00:58:34.111Z,67.10
2018-11-07T00:59:34.075Z,70.10
2018-11-07T01:00:34.098Z,60.80
2018-11-07T01:01:34.089Z,65.50
2018-11-07T01:02:34.092Z,61.70
2018-11-07T01:03:34.115Z,64.80
2018-11-07T01:04:34.073Z,61.90
2018-11-07T01:05:34.060Z,63.70
2018-11-07T01:06:34.464Z,63.70
2018-11-07T01:07:34.051Z,63.30
2018-11-07T01:08:34.079Z,59.70
2018-11-07T01:09:34.132Z,60.40
2018-11-07T01:10:34.041Z,58.20
2018-11-07T01:11:34.069Z,58.60
2018-11-07T01:12:34.032Z,65.00
2018-11-07T01:13:34.062Z,61.80
2018-11-07T01:14:34.041Z,53.60
2018-11-07T01:15:34.046Z,60.60
2018-11-07T01:16:34.064Z,56.30
2018-11-07T01:17:34.050Z,63.00
2018-11-07T01:18:34.051Z,55.50
2018-11-07T01:19:34.039Z,57.30
2018-11-07T01:20:34.024Z,53.70
2018-11-07T01:21:34.014Z,60.50
2018-11-07T01:22:34.027Z,60.30
2018-11-07T01:23:34.047Z,52.50
2018-11-07T01:24:34.017Z,55.40
2018-11-07T01:25:34.007Z,58.40
2018-11-07T01:26:34.011Z,54.50
2018-11-07T01:27:33.997Z,48.80
2018-11-07T01:28:34.029Z,52.90
2018-11-07T01:29:33.997Z,49.20
2018-11-07T01:30:34.012Z,49.00
2018-11-07T01:31:34.941Z,50.50
2018-11-07T01:32:34.017Z,51.30
2018-11-07T01:33:34.030Z,54.90
2018-11-07T01:34:33.998Z,47.20
2018-11-07T01:35:34.001Z,49.90
2018-11-07T01:36:33.991Z,54.30
2018-11-07T01:37:33.987Z,48.60
2018-11-07T01:38:34.016Z,53.00
2018-11-07T01:39:33.972Z,52.70
2018-11-07T01:40:33.976Z,66.30
2018-11-07T01:41:33.992Z,56.40
2018-11-07T01:42:34.004Z,45.10
2018-11-07T01:43:33.973Z,51.30
2018-11-07T01:44:33.951Z,52.70
2018-11-07T01:45:33.990Z,48.10
2018-11-07T01:46:33.978Z,45.80
2018-11-07T01:47:33.994Z,48.70
2018-11-07T01:48:33.946Z,46.30
2018-11-07T01:49:33.962Z,49.90
2018-11-07T01:50:34.002Z,46.60
2018-11-07T01:51:33.948Z,47.60
2018-11-07T01:52:34.461Z,51.70
2018-11-07T01:53:33.938Z,51.50
2018-11-07T01:54:33.944Z,49.60
2018-11-07T01:55:33.942Z,43.90
2018-11-07T01:56:33.950Z,52.60
2018-11-07T01:57:33.970Z,46.90
2018-11-07T01:58:33.937Z,52.80
2018-11-07T01:59:33.911Z,46.90
2018-11-07T02:00:33.928Z,49.30
2018-11-07T02:01:33.939Z,51.60
2018-11-07T02:02:33.948Z,47.20
2018-11-07T02:03:33.908Z,50.90
2018-11-07T02:04:33.935Z,54.70
2018-11-07T02:05:33.918Z,47.80
2018-11-07T02:06:33.913Z,52.80
2018-11-07T02:07:33.932Z,48.80
2018-11-07T02:08:33.927Z,48.40
2018-11-07T02:09:33.916Z,51.70
2018-11-07T02:10:33.930Z,50.50
2018-11-07T02:11:33.899Z,47.80
2018-11-07T02:12:33.933Z,53.30
2018-11-07T02:13:48.432Z,48.20
2018-11-07T02:14:33.885Z,48.90
2018-11-07T02:15:33.918Z,49.30
2018-11-07T02:16:33.899Z,47.50
2018-11-07T02:17:33.912Z,50.30
2018-11-07T02:18:33.907Z,51.50
2018-11-07T02:19:33.878Z,54.10
2018-11-07T02:20:33.900Z,54.80
2018-11-07T02:21:33.868Z,52.20
2018-11-07T02:22:33.892Z,54.10
2018-11-07T02:23:33.851Z,55.50
2018-11-07T02:24:33.852Z,57.70
2018-11-07T02:25:33.859Z,59.50
2018-11-07T02:26:33.939Z,58.90
2018-11-07T02:27:33.889Z,60.70
2018-11-07T02:28:33.849Z,63.70
2018-11-07T02:29:33.864Z,54.20
2018-11-07T02:30:33.838Z,62.00
2018-11-07T02:31:33.856Z,62.80
2018-11-07T02:32:33.881Z,57.90
2018-11-07T02:33:33.836Z,60.00
2018-11-07T02:34:55.467Z,61.00
2018-11-07T02:35:33.886Z,57.30
2018-11-07T02:36:33.865Z,55.60
2018-11-07T02:37:33.817Z,55.40
2018-11-07T02:38:33.845Z,65.80
2018-11-07T02:39:33.819Z,61.10
2018-11-07T02:40:33.815Z,63.50
2018-11-07T02:41:33.868Z,54.60
2018-11-07T02:42:33.826Z,58.30
2018-11-07T02:43:33.835Z,57.70
2018-11-07T02:44:33.804Z,62.30
2018-11-07T02:45:33.812Z,61.80
2018-11-07T02:46:33.800Z,65.60
2018-11-07T02:47:33.786Z,61.00
2018-11-07T02:48:33.839Z,63.30
2018-11-07T02:49:33.804Z,65.50
2018-11-07T02:50:33.791Z,60.70
2018-11-07T02:51:33.786Z,68.30
2018-11-07T02:52:33.816Z,64.00
2018-11-07T02:53:33.897Z,62.10
2018-11-07T02:54:33.775Z,53.50
2018-11-07T02:55:35.449Z,50.80
2018-11-07T02:56:33.779Z,46.50
2018-11-07T02:57:33.792Z,40.20
2018-11-07T02:58:33.802Z,47.90
2018-11-07T02:59:33.761Z,43.30
2018-11-07T03:00:33.779Z,42.80
2018-11-07T03:01:33.762Z,37.90
2018-11-07T03:02:33.775Z,36.10
2018-11-07T03:03:33.740Z,42.20
2018-11-07T03:04:33.740Z,39.30
2018-11-07T03:05:33.790Z,38.10
2018-11-07T03:06:33.726Z,39.30
2018-11-07T03:07:33.746Z,39.70
2018-11-07T03:08:33.796Z,33.50
2018-11-07T03:09:33.745Z,31.90
2018-11-07T03:10:33.783Z,40.40
2018-11-07T03:11:33.729Z,38.30
2018-11-07T03:12:33.723Z,40.50
2018-11-07T03:13:33.759Z,31.30
2018-11-07T03:14:33.724Z,35.50
2018-11-07T03:15:33.741Z,37.40
2018-11-07T03:16:33.715Z,33.30
2018-11-07T03:17:33.744Z,35.80
2018-11-07T03:18:33.704Z,38.10
2018-11-07T03:19:33.697Z,37.50
2018-11-07T03:20:33.739Z,33.80
2018-11-07T03:21:33.695Z,40.00
2018-11-07T03:22:33.701Z,40.50
2018-11-07T03:23:33.741Z,36.10
2018-11-07T03:24:33.700Z,32.60
2018-11-07T03:25:33.686Z,34.90
2018-11-07T03:26:33.714Z,32.30
2018-11-07T03:27:33.695Z,32.40
2018-11-07T03:28:33.718Z,37.40
2018-11-07T03:29:33.676Z,36.20
2018-11-07T03:30:33.695Z,39.40
2018-11-07T03:31:33.676Z,40.80
2018-11-07T03:32:33.673Z,36.80
2018-11-07T03:33:33.716Z,39.50
2018-11-07T03:34:34.441Z,36.30
2018-11-07T03:35:33.660Z,30.80
2018-11-07T03:36:33.653Z,36.20
2018-11-07T03:37:33.667Z,38.30
2018-11-07T03:38:33.692Z,35.30
2018-11-07T03:39:33.758Z,36.40
2018-11-07T03:40:33.662Z,36.30
2018-11-07T03:41:33.642Z,35.10
2018-11-07T03:42:33.648Z,35.70
2018-11-07T03:43:33.670Z,37.10
2018-11-07T03:44:33.634Z,39.40
2018-11-07T03:45:33.636Z,36.00
2018-11-07T03:46:33.638Z,31.30
2018-11-07T03:47:33.617Z,27.40
2018-11-07T03:48:33.669Z,35.30
2018-11-07T03:49:33.636Z,36.00
2018-11-07T03:50:33.624Z,32.20
2018-11-07T03:51:33.629Z,40.20
2018-11-07T03:52:33.620Z,34.80
2018-11-07T03:53:33.652Z,37.30
2018-11-07T03:54:33.613Z,39.70
2018-11-07T03:55:33.603Z,37.90
2018-11-07T03:56:33.626Z,37.10
2018-11-07T03:57:33.598Z,34.70
2018-11-07T03:58:33.619Z,36.40
2018-11-07T03:59:33.634Z,38.00
2018-11-07T04:00:33.622Z,37.60
2018-11-07T04:01:33.608Z,33.80
2018-11-07T04:02:33.583Z,38.80
2018-11-07T04:03:33.621Z,39.20
2018-11-07T04:04:33.628Z,38.60
2018-11-07T04:05:33.612Z,40.60
2018-11-07T04:06:33.585Z,39.10
2018-11-07T04:07:33.578Z,37.90
2018-11-07T04:08:33.596Z,34.30
2018-11-07T04:09:33.588Z,37.70
2018-11-07T04:10:33.561Z,37.70
2018-11-07T04:11:33.557Z,46.30
2018-11-07T04:12:33.569Z,39.40
2018-11-07T04:13:33.589Z,43.70
2018-11-07T04:14:33.571Z,36.30
2018-11-07T04:15:33.569Z,43.30
2018-11-07T04:16:34.444Z,36.20
2018-11-07T04:17:33.541Z,35.80
2018-11-07T04:18:33.577Z,44.50
2018-11-07T04:19:33.578Z,39.70
2018-11-07T04:20:33.546Z,44.60
2018-11-07T04:21:33.582Z,44.70
2018-11-07T04:22:33.530Z,40.00
2018-11-07T04:23:33.580Z,38.40
2018-11-07T04:24:33.515Z,40.00
2018-11-07T04:25:33.556Z,43.60
2018-11-07T04:26:33.547Z,41.10
2018-11-07T04:27:33.525Z,44.60
2018-11-07T04:28:33.566Z,40.10
2018-11-07T04:29:33.532Z,38.50
2018-11-07T04:30:33.529Z,41.50
2018-11-07T04:31:33.510Z,42.10
2018-11-07T04:32:33.522Z,41.80
2018-11-07T04:33:33.539Z,36.30
2018-11-07T04:34:33.499Z,37.20
2018-11-07T04:35:33.495Z,39.30
2018-11-07T04:36:33.510Z,50.90
2018-11-07T04:37:34.455Z,43.60
2018-11-07T04:38:33.511Z,37.40
2018-11-07T04:39:33.483Z,41.20
2018-11-07T04:40:33.508Z,43.30
2018-11-07T04:41:33.479Z,45.00
2018-11-07T04:42:33.472Z,42.00
2018-11-07T04:43:33.505Z,48.40
2018-11-07T04:44:33.464Z,52.50
2018-11-07T04:45:33.469Z,39.30
2018-11-07T04:46:33.486Z,36.20
2018-11-07T04:47:33.473Z,34.90
2018-11-07T04:48:33.499Z,39.60
2018-11-07T04:49:33.448Z,39.80
2018-11-07T04:50:33.465Z,39.90
2018-11-07T04:51:33.450Z,36.50
2018-11-07T04:52:33.453Z,39.70
2018-11-07T04:53:33.474Z,41.30
2018-11-07T04:54:33.459Z,41.70
2018-11-07T04:55:33.443Z,43.20
2018-11-07T04:56:33.455Z,42.90
2018-11-07T04:57:33.436Z,38.00
2018-11-07T04:58:33.475Z,42.40
2018-11-07T04:59:33.421Z,38.50
2018-11-07T05:00:33.417Z,40.40
2018-11-07T05:01:33.420Z,39.30
2018-11-07T05:02:33.425Z,37.70
2018-11-07T05:03:33.451Z,42.90
2018-11-07T05:04:33.437Z,41.30
2018-11-07T05:05:33.411Z,40.50
2018-11-07T05:06:33.412Z,41.80
2018-11-07T05:07:33.427Z,52.40
2018-11-07T05:08:33.487Z,51.50
2018-11-07T05:09:33.438Z,42.50
2018-11-07T05:10:33.393Z,52.70
2018-11-07T05:11:33.391Z,70.00
2018-11-07T05:12:33.401Z,63.40
2018-11-07T05:13:33.428Z,57.30
2018-11-07T05:14:33.406Z,42.10
2018-11-07T05:15:33.405Z,41.60
2018-11-07T05:16:33.389Z,45.80
2018-11-07T05:17:33.371Z,45.50
2018-11-07T05:18:54.401Z,51.90
2018-11-07T05:19:33.407Z,49.10
2018-11-07T05:20:33.373Z,49.20
2018-11-07T05:21:33.403Z,53.10
2018-11-07T05:22:33.354Z,45.70
2018-11-07T05:23:33.419Z,46.20
2018-11-07T05:24:33.359Z,47.10
2018-11-07T05:25:33.347Z,48.80
2018-11-07T05:26:33.369Z,44.10
2018-11-07T05:27:33.350Z,44.10
2018-11-07T05:28:33.417Z,44.70
2018-11-07T05:29:33.335Z,46.20
2018-11-07T05:30:33.335Z,53.70
2018-11-07T05:31:33.330Z,49.50
2018-11-07T05:32:33.353Z,49.80
2018-11-07T05:33:33.373Z,50.40
2018-11-07T05:34:33.340Z,42.00
2018-11-07T05:35:33.314Z,47.40
2018-11-07T05:36:33.313Z,46.20
2018-11-07T05:37:33.361Z,40.00
2018-11-07T05:38:33.306Z,43.00
2018-11-07T05:39:37.961Z,48.80
2018-11-07T05:40:33.332Z,43.30
2018-11-07T05:41:33.330Z,47.40
2018-11-07T05:42:33.393Z,43.10
2018-11-07T05:43:33.292Z,45.80
2018-11-07T05:44:33.292Z,45.50
2018-11-07T05:45:33.286Z,43.00
2018-11-07T05:46:33.341Z,44.60
2018-11-07T05:47:33.313Z,43.00
2018-11-07T05:48:33.305Z,49.70
2018-11-07T05:49:33.294Z,58.40
2018-11-07T05:50:33.296Z,58.40
2018-11-07T05:51:33.285Z,54.00
2018-11-07T05:52:33.306Z,54.30
2018-11-07T05:53:33.270Z,46.00
2018-11-07T05:54:33.289Z,43.30
2018-11-07T05:55:33.261Z,44.80
2018-11-07T05:56:33.248Z,40.20
2018-11-07T05:57:33.275Z,46.50
2018-11-07T05:58:33.274Z,37.00
2018-11-07T05:59:33.246Z,45.10
2018-11-07T06:00:33.260Z,44.70
2018-11-07T06:01:33.238Z,47.50
2018-11-07T06:02:33.287Z,43.00
2018-11-07T06:03:33.222Z,45.30
2018-11-07T06:04:33.247Z,48.70
2018-11-07T06:05:33.214Z,49.20
2018-11-07T06:06:33.216Z,57.60
2018-11-07T06:07:33.250Z,54.70
2018-11-07T06:08:33.248Z,40.70
2018-11-07T06:09:33.222Z,55.20
2018-11-07T06:10:33.210Z,75.30
2018-11-07T06:11:33.206Z,57.20
2018-11-07T06:12:33.252Z,52.00
2018-11-07T06:13:33.211Z,50.50
2018-11-07T06:14:33.206Z,49.30
2018-11-07T06:15:33.197Z,46.20
2018-11-07T06:16:33.184Z,52.60
2018-11-07T06:17:33.207Z,48.50
2018-11-07T06:18:33.188Z,44.70
2018-11-07T06:19:33.221Z,51.80
2018-11-07T06:22:04.837Z,59.50
2018-11-07T06:23:04.900Z,57.80
2018-11-07T06:24:04.807Z,52.30
2018-11-07T06:25:04.805Z,56.60
2018-11-07T06:26:04.793Z,61.50
2018-11-07T06:27:04.796Z,68.30
2018-11-07T06:28:04.818Z,56.30
2018-11-07T06:29:04.786Z,58.70
2018-11-07T06:30:04.781Z,52.40
2018-11-07T06:31:04.782Z,46.70
2018-11-07T06:32:04.780Z,46.40
2018-11-07T06:33:04.809Z,61.10
2018-11-07T06:34:04.852Z,53.60
2018-11-07T06:35:04.766Z,61.70
2018-11-07T06:36:04.767Z,51.70
2018-11-07T06:37:04.786Z,51.70
2018-11-07T06:38:04.757Z,48.00
2018-11-07T06:39:04.753Z,60.10
2018-11-07T06:40:04.752Z,54.80
2018-11-07T06:41:04.749Z,49.90
2018-11-07T06:42:04.810Z,56.90
2018-11-07T06:43:04.746Z,51.70
2018-11-07T06:44:04.744Z,53.70
2018-11-07T06:45:04.738Z,49.20
2018-11-07T06:46:04.734Z,49.80
2018-11-07T06:47:04.762Z,53.60
2018-11-07T06:48:04.726Z,46.70
2018-11-07T06:49:04.722Z,46.80
2018-11-07T06:50:04.719Z,45.30
2018-11-07T06:51:04.721Z,44.30
2018-11-07T06:52:04.742Z,49.40
2018-11-07T06:53:04.714Z,53.50
2018-11-07T06:54:04.706Z,56.00
2018-11-07T06:55:04.714Z,55.80
2018-11-07T06:56:04.708Z,60.40
2018-11-07T06:57:04.728Z,57.50
2018-11-07T06:58:04.701Z,60.10
2018-11-07T06:59:04.690Z,57.10
2018-11-07T07:00:04.693Z,60.40
2018-11-07T07:01:04.705Z,54.30
2018-11-07T07:02:04.721Z,55.90
2018-11-07T07:03:04.679Z,52.60
2018-11-07T07:04:04.679Z,56.60
2018-11-07T07:05:04.676Z,54.90
2018-11-07T07:06:04.667Z,58.50
2018-11-07T07:07:04.697Z,57.40
2018-11-07T07:08:04.665Z,52.00
2018-11-07T07:09:04.663Z,55.30
2018-11-07T07:10:04.661Z,51.20
2018-11-07T07:11:04.655Z,54.00
2018-11-07T07:12:04.686Z,55.20
2018-11-07T07:13:04.652Z,53.40
2018-11-07T07:14:04.645Z,60.10
2018-11-07T07:15:04.645Z,66.00
2018-11-07T07:16:04.647Z,62.70
2018-11-07T07:17:04.667Z,55.30
2018-11-07T07:18:04.720Z,59.10
2018-11-07T07:19:04.631Z,67.20
2018-11-07T07:20:04.635Z,71.10
2018-11-07T07:21:04.628Z,52.40
2018-11-07T07:22:04.694Z,57.10
2018-11-07T07:23:04.624Z,59.00
2018-11-07T07:24:04.623Z,57.90
2018-11-07T07:25:04.621Z,56.80
2018-11-07T07:26:04.615Z,52.10
2018-11-07T07:27:04.640Z,51.30
2018-11-07T07:28:04.612Z,51.60
2018-11-07T07:29:04.609Z,45.80
2018-11-07T07:30:04.697Z,41.20
2018-11-07T07:31:04.610Z,39.10
2018-11-07T07:32:04.632Z,40.50
2018-11-07T07:33:04.669Z,41.80
2018-11-07T07:34:04.603Z,40.10
2018-11-07T07:35:04.596Z,36.70
2018-11-07T07:36:04.596Z,35.20
2018-11-07T07:37:04.625Z,35.30
2018-11-07T07:38:04.593Z,31.50
2018-11-07T07:39:04.597Z,30.30
2018-11-07T07:40:04.592Z,27.90
2018-11-07T07:41:04.593Z,30.20
2018-11-07T07:42:04.625Z,30.30
2018-11-07T07:43:04.589Z,27.60
2018-11-07T07:44:04.613Z,26.80
2018-11-07T07:45:04.586Z,26.60
2018-11-07T07:46:04.593Z,26.10
2018-11-07T07:47:04.589Z,25.10
2018-11-07T07:48:04.622Z,25.90
2018-11-07T07:49:04.655Z,23.10
2018-11-07T07:50:04.594Z,25.50
2018-11-07T07:51:04.590Z,25.90
2018-11-07T07:52:04.594Z,25.10
2018-11-07T07:53:04.628Z,24.00
2018-11-07T07:54:04.594Z,22.50
2018-11-07T07:55:04.597Z,24.40
2018-11-07T07:56:04.604Z,22.50
2018-11-07T07:57:04.595Z,23.00
2018-11-07T07:58:04.626Z,23.50
2018-11-07T07:59:04.598Z,21.00
2018-11-07T08:00:04.604Z,22.20
2018-11-07T08:01:04.603Z,26.60
2018-11-07T08:02:04.603Z,24.40
2018-11-07T08:03:04.634Z,22.20
2018-11-07T08:04:04.607Z,22.60
2018-11-07T08:05:04.608Z,20.80
2018-11-07T08:06:04.610Z,22.00
2018-11-07T08:07:04.678Z,21.30
2018-11-07T08:08:04.642Z,20.00
2018-11-07T08:09:04.614Z,19.90
2018-11-07T08:10:04.618Z,20.30
2018-11-07T08:11:04.624Z,21.50
2018-11-07T08:12:04.622Z,20.70
2018-11-07T08:13:04.654Z,20.70
2018-11-07T08:14:04.713Z,19.30
2018-11-07T08:15:04.627Z,18.40
2018-11-07T08:16:04.633Z,21.60
2018-11-07T08:17:04.664Z,20.80
2018-11-07T08:18:04.643Z,19.70
2018-11-07T08:19:04.637Z,21.00
2018-11-07T08:20:04.646Z,19.80
2018-11-07T08:21:04.713Z,19.10
2018-11-07T08:22:04.681Z,19.30
2018-11-07T08:23:04.651Z,19.60
2018-11-07T08:24:04.656Z,19.70
2018-11-07T08:25:04.671Z,20.50
2018-11-07T08:26:04.677Z,19.40
2018-11-07T08:27:04.716Z,20.90
2018-11-07T08:28:04.668Z,20.10
2018-11-07T08:29:04.695Z,20.20
2018-11-07T08:30:04.672Z,20.70
2018-11-07T08:31:04.748Z,22.20
2018-11-07T08:32:04.703Z,21.00
2018-11-07T08:33:04.680Z,22.30
2018-11-07T08:34:04.685Z,20.70
2018-11-07T08:35:04.681Z,22.20
2018-11-07T08:36:04.686Z,21.20
2018-11-07T08:37:04.717Z,22.00
2018-11-07T08:38:04.698Z,17.30
2018-11-07T08:39:04.702Z,20.20
2018-11-07T08:40:04.700Z,19.90
2018-11-07T08:41:04.700Z,20.10
2018-11-07T08:42:04.748Z,19.60
2018-11-07T08:43:04.705Z,20.20
2018-11-07T08:44:04.707Z,20.10
2018-11-07T08:45:04.742Z,19.40
2018-11-07T08:46:04.712Z,17.80
2018-11-07T08:47:04.724Z,18.40
2018-11-07T08:48:04.804Z,18.90
2018-11-07T08:49:04.725Z,19.60
2018-11-07T08:50:04.726Z,18.10
2018-11-07T08:51:04.729Z,19.40
2018-11-07T08:52:04.735Z,18.30
2018-11-07T08:53:04.766Z,18.20
2018-11-07T08:54:06.366Z,18.80
2018-11-07T08:55:04.794Z,18.20
2018-11-07T08:56:04.742Z,19.40
2018-11-07T08:57:04.800Z,18.70
2018-11-07T08:58:04.812Z,16.90
2018-11-07T08:59:04.817Z,19.30
2018-11-07T09:00:04.762Z,16.00
2018-11-07T09:01:04.809Z,18.30
2018-11-07T09:02:04.821Z,16.50
2018-11-07T09:03:04.817Z,18.30
2018-11-07T09:04:04.783Z,16.40
2018-11-07T09:05:04.786Z,16.50
2018-11-07T09:06:04.792Z,16.50
2018-11-07T09:07:04.794Z,16.00
2018-11-07T09:08:04.954Z,17.20
2018-11-07T09:09:05.292Z,14.80
2018-11-07T09:10:04.811Z,16.00
2018-11-07T09:11:04.805Z,14.70
2018-11-07T09:12:04.881Z,15.60
2018-11-07T09:13:04.855Z,17.00
2018-11-07T09:14:04.828Z,16.10
2018-11-07T09:15:04.835Z,15.90
2018-11-07T09:16:04.840Z,14.50
2018-11-07T09:17:04.848Z,14.40
2018-11-07T09:18:04.876Z,14.60
2018-11-07T09:19:04.858Z,14.60
2018-11-07T09:20:04.943Z,16.00
2018-11-07T09:21:04.852Z,14.60
2018-11-07T09:22:04.899Z,15.70
2018-11-07T09:23:04.982Z,15.80
2018-11-07T09:24:04.896Z,15.90
2018-11-07T09:25:05.800Z,16.70
2018-11-07T09:26:04.914Z,14.50
2018-11-07T09:27:04.930Z,17.30
2018-11-07T09:28:04.946Z,36.90
2018-11-07T09:29:04.977Z,24.60
2018-11-07T09:30:04.934Z,16.40
2018-11-07T09:31:04.932Z,24.20
2018-11-07T09:32:04.977Z,17.50
2018-11-07T09:33:05.000Z,20.10
2018-11-07T09:34:04.968Z,18.70
2018-11-07T09:35:04.978Z,15.70
2018-11-07T09:36:04.982Z,22.00
2018-11-07T09:37:05.060Z,23.00
2018-11-07T09:38:05.025Z,18.90
2018-11-07T09:39:05.016Z,18.60
2018-11-07T09:40:05.067Z,17.30
2018-11-07T09:41:05.061Z,16.40
2018-11-07T09:42:05.092Z,15.30
2018-11-07T09:43:05.077Z,14.00
2018-11-07T09:44:05.280Z,15.50
2018-11-07T09:45:05.163Z,20.60
2018-11-07T09:46:05.059Z,17.60
2018-11-07T09:47:05.120Z,19.00
2018-11-07T09:48:05.153Z,22.50
2018-11-07T09:49:05.084Z,14.60
2018-11-07T09:50:05.100Z,20.10
2018-11-07T09:51:05.103Z,17.00
2018-11-07T09:52:05.166Z,22.40
2018-11-07T09:53:05.146Z,15.90
2018-11-07T09:54:05.211Z,19.30
2018-11-07T09:55:05.155Z,17.90
2018-11-07T09:56:05.130Z,16.40
2018-11-07T09:57:05.155Z,16.00
2018-11-07T09:58:05.221Z,17.20
2018-11-07T09:59:05.303Z,23.60
2018-11-07T10:00:05.153Z,30.50
2018-11-07T10:01:05.161Z,15.50
2018-11-07T10:02:05.182Z,28.20
2018-11-07T10:03:05.223Z,27.40
2018-11-07T10:04:05.248Z,35.50
2018-11-07T10:05:05.207Z,15.90
2018-11-07T10:06:05.226Z,24.00
2018-11-07T10:07:05.201Z,26.50
2018-11-07T10:08:05.306Z,18.60
2018-11-07T10:09:05.233Z,19.70
2018-11-07T10:10:05.252Z,17.70
2018-11-07T10:11:05.231Z,13.70
2018-11-07T10:12:05.243Z,16.70
2018-11-07T10:13:05.282Z,16.00
2018-11-07T10:14:05.245Z,23.20
2018-11-07T10:15:05.251Z,18.20
2018-11-07T10:16:05.355Z,18.50
2018-11-07T10:17:05.272Z,17.30
2018-11-07T10:18:05.451Z,47.50
2018-11-07T10:19:05.282Z,21.70
2018-11-07T10:20:05.294Z,34.00
2018-11-07T10:21:05.296Z,22.60
2018-11-07T10:22:05.328Z,25.70
2018-11-07T10:23:06.079Z,19.50
2018-11-07T10:24:05.345Z,17.50
2018-11-07T10:25:05.587Z,13.30
2018-11-07T10:26:05.355Z,13.40
2018-11-07T10:27:05.635Z,16.70
2018-11-07T10:28:05.807Z,19.10
2018-11-07T10:29:05.537Z,15.40
2018-11-07T10:30:05.754Z,19.40
2018-11-07T10:31:05.393Z,21.20
2018-11-07T10:32:05.424Z,19.60
2018-11-07T10:33:05.389Z,28.00
2018-11-07T10:34:05.383Z,31.00
2018-11-07T10:35:05.393Z,45.90
2018-11-07T10:36:05.436Z,38.60
2018-11-07T10:37:05.417Z,23.20
2018-11-07T10:38:05.551Z,16.10
2018-11-07T10:39:05.574Z,13.50
2018-11-07T10:40:05.441Z,15.50
2018-11-07T10:41:05.555Z,14.50
2018-11-07T10:42:05.455Z,13.40
2018-11-07T10:43:05.533Z,13.90
2018-11-07T10:44:05.464Z,15.00
2018-11-07T10:45:06.545Z,14.40
2018-11-07T10:46:05.570Z,16.60
2018-11-07T10:47:05.482Z,21.10
2018-11-07T10:48:05.517Z,21.10
2018-11-07T10:49:06.324Z,15.60
2018-11-07T10:50:05.508Z,16.40
2018-11-07T10:51:05.510Z,22.30
2018-11-07T10:52:06.825Z,17.10
2018-11-07T10:53:05.558Z,14.00
2018-11-07T10:54:05.536Z,17.60
2018-11-07T10:55:05.548Z,18.80
2018-11-07T10:56:05.553Z,18.20
2018-11-07T10:57:05.558Z,17.80
2018-11-07T10:58:05.607Z,16.30
2018-11-07T10:59:06.478Z,15.70
2018-11-07T11:00:05.599Z,12.00
2018-11-07T11:01:05.605Z,12.70
2018-11-07T11:02:05.624Z,15.80
2018-11-07T11:03:05.647Z,16.80
2018-11-07T11:04:05.628Z,22.20
2018-11-07T11:05:05.638Z,19.70
2018-11-07T11:06:05.636Z,24.50
2018-11-07T11:07:05.643Z,16.30
2018-11-07T11:08:05.680Z,15.20
2018-11-07T11:09:05.666Z,21.30
2018-11-07T11:10:05.672Z,14.40
2018-11-07T11:11:05.685Z,13.00
2018-11-07T11:12:05.704Z,19.30
2018-11-07T11:13:05.860Z,22.10
2018-11-07T11:14:05.711Z,21.50
2018-11-07T11:15:05.724Z,13.20
2018-11-07T11:16:05.729Z,12.10
2018-11-07T11:17:05.845Z,12.30
2018-11-07T11:18:05.796Z,14.10
2018-11-07T11:19:05.762Z,11.80
2018-11-07T11:20:05.772Z,14.00
2018-11-07T11:21:05.788Z,13.20
2018-11-07T11:22:05.788Z,14.10
2018-11-07T11:23:05.824Z,12.60
2018-11-07T11:24:05.814Z,13.40
2018-11-07T11:25:05.821Z,13.20
2018-11-07T11:26:05.827Z,13.60
2018-11-07T11:27:05.845Z,13.00
2018-11-07T11:28:05.886Z,12.40
2018-11-07T11:29:05.861Z,13.60
2018-11-07T11:30:05.869Z,12.30
2018-11-07T11:31:05.880Z,12.90
2018-11-07T11:32:05.882Z,13.00
2018-11-07T11:33:05.925Z,12.00
2018-11-07T11:34:06.166Z,12.60
2018-11-07T11:35:06.066Z,15.90
2018-11-07T11:36:05.929Z,13.90
2018-11-07T11:37:05.966Z,11.60
2018-11-07T11:38:05.948Z,12.90
2018-11-07T11:39:05.983Z,15.00
2018-11-07T11:40:05.967Z,12.50
2018-11-07T11:41:06.031Z,13.00
2018-11-07T11:42:05.981Z,12.30
2018-11-07T11:43:06.018Z,14.00
2018-11-07T11:44:06.008Z,12.10
2018-11-07T11:45:06.014Z,13.00
2018-11-07T11:46:06.024Z,12.80
2018-11-07T11:47:06.032Z,13.20
2018-11-07T11:48:06.071Z,12.80
2018-11-07T11:49:06.125Z,12.10
2018-11-07T11:50:06.068Z,13.40
2018-11-07T11:51:06.085Z,11.10
2018-11-07T11:52:06.097Z,11.40
2018-11-07T11:53:06.131Z,13.00
2018-11-07T11:54:06.128Z,12.90
2018-11-07T11:55:06.131Z,12.80
2018-11-07T11:56:06.141Z,13.80
2018-11-07T11:57:06.147Z,14.40
2018-11-07T11:58:06.182Z,13.20
2018-11-07T11:59:06.245Z,13.10
2018-11-07T12:00:06.442Z,13.10
2018-11-07T12:01:06.194Z,13.80
2018-11-07T12:02:06.210Z,13.00
2018-11-07T12:03:06.248Z,13.20
2018-11-07T12:04:06.232Z,14.40
2018-11-07T12:05:06.247Z,13.20
2018-11-07T12:06:06.259Z,13.70
2018-11-07T12:07:06.268Z,13.50
2018-11-07T12:08:06.360Z,11.80
2018-11-07T12:09:06.295Z,12.10
2018-11-07T12:10:06.303Z,14.30
2018-11-07T12:11:06.316Z,14.10
2018-11-07T12:12:06.405Z,12.20
2018-11-07T12:13:06.368Z,13.90
2018-11-07T12:14:06.357Z,13.20
2018-11-07T12:15:06.422Z,10.50
2018-11-07T12:16:06.377Z,13.60
2018-11-07T12:17:06.386Z,13.40
2018-11-07T12:18:06.432Z,11.90
2018-11-07T12:19:06.415Z,15.70
2018-11-07T12:20:06.441Z,13.30
2018-11-07T12:21:06.478Z,13.10
2018-11-07T12:22:06.450Z,12.80
2018-11-07T12:23:06.489Z,11.50
2018-11-07T12:24:06.471Z,12.00
2018-11-07T12:25:06.481Z,11.50
2018-11-07T12:26:06.490Z,11.70
2018-11-07T12:27:06.501Z,12.00
2018-11-07T12:28:06.542Z,10.70
2018-11-07T12:29:06.527Z,11.90
2018-11-07T12:30:06.539Z,11.10
2018-11-07T12:31:06.550Z,14.30
2018-11-07T12:32:06.559Z,12.20
2018-11-07T12:33:06.606Z,12.50
2018-11-07T12:34:06.587Z,13.50
2018-11-07T12:35:06.592Z,14.40
2018-11-07T12:36:06.604Z,13.60
2018-11-07T12:37:06.614Z,12.40
2018-11-07T12:38:06.655Z,13.50
2018-11-07T12:39:06.636Z,13.80
2018-11-07T12:40:06.660Z,11.80
2018-11-07T12:41:06.662Z,13.10
2018-11-07T12:42:06.796Z,13.10
2018-11-07T12:43:06.708Z,11.60
2018-11-07T12:44:06.692Z,13.00
2018-11-07T12:45:06.700Z,13.40
2018-11-07T12:46:06.717Z,12.10
2018-11-07T12:47:06.716Z,13.00
2018-11-07T12:48:06.758Z,14.10
2018-11-07T12:49:06.745Z,12.60
2018-11-07T12:50:06.791Z,12.60
2018-11-07T12:51:06.757Z,14.00
2018-11-07T12:52:06.773Z,15.20
2018-11-07T12:53:06.811Z,13.20
2018-11-07T12:54:06.799Z,14.40